sensor_id;sensor_type;location;lat;lon;timestamp;P1;durP1;ratioP1;P2;durP2;ratioP2
21492;SDS011;10908;50.690;4.400;2024-02-26T00:01:40;3.95;;;1.23;;
21492;SDS011;10908;50.690;4.400;2024-02-26T00:04:08;5.07;;;1.48;;
21492;SDS011;10908;50.690;4.400;2024-02-26T00:06:34;5.05;;;1.30;;
21492;SDS011;10908;50.690;4.400;2024-02-26T00:09:00;3.35;;;1.20;;
21492;SDS011;10908;50.690;4.400;2024-02-26T00:11:27;3.60;;;1.00;;
21492;SDS011;10908;50.690;4.400;2024-02-26T00:13:53;3.53;;;1.38;;
21492;SDS011;10908;50.690;4.400;2024-02-26T00:16:18;5.20;;;1.50;;
21492;SDS011;10908;50.690;4.400;2024-02-26T00:18:44;5.35;;;1.55;;
21492;SDS011;10908;50.690;4.400;2024-02-26T00:21:10;3.70;;;1.17;;
21492;SDS011;10908;50.690;4.400;2024-02-26T00:23:35;3.78;;;1.20;;
21492;SDS011;10908;50.690;4.400;2024-02-26T00:26:01;3.80;;;1.40;;
21492;SDS011;10908;50.690;4.400;2024-02-26T00:28:27;4.95;;;1.45;;
21492;SDS011;10908;50.690;4.400;2024-02-26T00:30:54;3.13;;;1.40;;
21492;SDS011;10908;50.690;4.400;2024-02-26T00:33:21;6.32;;;1.40;;
21492;SDS011;10908;50.690;4.400;2024-02-26T00:35:47;3.88;;;1.15;;
21492;SDS011;10908;50.690;4.400;2024-02-26T00:38:13;4.35;;;1.40;;
21492;SDS011;10908;50.690;4.400;2024-02-26T00:40:38;3.58;;;1.40;;
21492;SDS011;10908;50.690;4.400;2024-02-26T00:43:05;3.53;;;1.50;;
21492;SDS011;10908;50.690;4.400;2024-02-26T00:45:34;3.20;;;1.30;;
21492;SDS011;10908;50.690;4.400;2024-02-26T00:48:00;3.50;;;1.38;;
21492;SDS011;10908;50.690;4.400;2024-02-26T00:50:29;3.50;;;1.10;;
21492;SDS011;10908;50.690;4.400;2024-02-26T00:52:55;3.42;;;1.33;;
21492;SDS011;10908;50.690;4.400;2024-02-26T00:55:21;4.28;;;1.48;;
21492;SDS011;10908;50.690;4.400;2024-02-26T00:57:46;3.88;;;1.33;;
21492;SDS011;10908;50.690;4.400;2024-02-26T01:00:12;4.00;;;1.50;;
21492;SDS011;10908;50.690;4.400;2024-02-26T01:02:38;4.20;;;1.15;;
21492;SDS011;10908;50.690;4.400;2024-02-26T01:05:05;4.97;;;1.50;;
21492;SDS011;10908;50.690;4.400;2024-02-26T01:07:31;3.92;;;1.05;;
21492;SDS011;10908;50.690;4.400;2024-02-26T01:10:01;5.35;;;1.23;;
21492;SDS011;10908;50.690;4.400;2024-02-26T01:12:27;3.55;;;1.20;;
21492;SDS011;10908;50.690;4.400;2024-02-26T01:14:52;4.05;;;1.30;;
21492;SDS011;10908;50.690;4.400;2024-02-26T01:17:18;4.22;;;1.70;;
21492;SDS011;10908;50.690;4.400;2024-02-26T01:19:44;6.10;;;1.35;;
21492;SDS011;10908;50.690;4.400;2024-02-26T01:22:09;3.22;;;1.10;;
21492;SDS011;10908;50.690;4.400;2024-02-26T01:24:35;4.85;;;1.33;;
21492;SDS011;10908;50.690;4.400;2024-02-26T01:27:00;3.38;;;1.40;;
21492;SDS011;10908;50.690;4.400;2024-02-26T01:29:26;5.25;;;1.30;;
21492;SDS011;10908;50.690;4.400;2024-02-26T01:31:51;6.60;;;1.35;;
21492;SDS011;10908;50.690;4.400;2024-02-26T01:34:17;3.67;;;1.20;;
21492;SDS011;10908;50.690;4.400;2024-02-26T01:36:43;5.47;;;1.30;;
21492;SDS011;10908;50.690;4.400;2024-02-26T01:39:09;5.15;;;1.40;;
21492;SDS011;10908;50.690;4.400;2024-02-26T01:41:37;3.47;;;1.30;;
21492;SDS011;10908;50.690;4.400;2024-02-26T01:44:04;7.03;;;1.40;;
21492;SDS011;10908;50.690;4.400;2024-02-26T01:46:30;3.97;;;1.17;;
21492;SDS011;10908;50.690;4.400;2024-02-26T01:48:58;5.03;;;1.45;;
21492;SDS011;10908;50.690;4.400;2024-02-26T01:51:24;5.28;;;1.50;;
21492;SDS011;10908;50.690;4.400;2024-02-26T01:53:50;4.20;;;1.40;;
21492;SDS011;10908;50.690;4.400;2024-02-26T01:56:16;6.80;;;1.58;;
21492;SDS011;10908;50.690;4.400;2024-02-26T01:58:43;5.15;;;1.58;;
21492;SDS011;10908;50.690;4.400;2024-02-26T02:01:09;4.57;;;1.58;;
21492;SDS011;10908;50.690;4.400;2024-02-26T02:03:35;4.35;;;1.35;;
21492;SDS011;10908;50.690;4.400;2024-02-26T02:06:02;4.97;;;1.70;;
21492;SDS011;10908;50.690;4.400;2024-02-26T02:08:28;4.03;;;1.60;;
21492;SDS011;10908;50.690;4.400;2024-02-26T02:10:55;5.47;;;1.90;;
21492;SDS011;10908;50.690;4.400;2024-02-26T02:13:21;6.28;;;1.95;;
21492;SDS011;10908;50.690;4.400;2024-02-26T02:15:47;5.93;;;1.63;;
21492;SDS011;10908;50.690;4.400;2024-02-26T02:18:12;5.50;;;1.70;;
21492;SDS011;10908;50.690;4.400;2024-02-26T02:20:38;3.72;;;1.42;;
21492;SDS011;10908;50.690;4.400;2024-02-26T02:23:03;5.47;;;1.65;;
21492;SDS011;10908;50.690;4.400;2024-02-26T02:25:29;5.43;;;1.80;;
21492;SDS011;10908;50.690;4.400;2024-02-26T02:27:55;4.28;;;1.65;;
21492;SDS011;10908;50.690;4.400;2024-02-26T02:30:23;5.32;;;1.75;;
21492;SDS011;10908;50.690;4.400;2024-02-26T02:32:52;4.35;;;1.50;;
21492;SDS011;10908;50.690;4.400;2024-02-26T02:35:18;3.97;;;1.35;;
21492;SDS011;10908;50.690;4.400;2024-02-26T02:37:44;3.75;;;1.48;;
21492;SDS011;10908;50.690;4.400;2024-02-26T02:40:10;3.38;;;1.55;;
21492;SDS011;10908;50.690;4.400;2024-02-26T02:42:35;4.40;;;1.80;;
21492;SDS011;10908;50.690;4.400;2024-02-26T02:45:01;4.05;;;1.48;;
21492;SDS011;10908;50.690;4.400;2024-02-26T02:47:27;3.88;;;1.70;;
21492;SDS011;10908;50.690;4.400;2024-02-26T02:49:52;5.13;;;1.65;;
21492;SDS011;10908;50.690;4.400;2024-02-26T02:52:18;5.63;;;1.60;;
21492;SDS011;10908;50.690;4.400;2024-02-26T02:54:43;6.53;;;1.88;;
21492;SDS011;10908;50.690;4.400;2024-02-26T02:57:09;4.18;;;1.70;;
21492;SDS011;10908;50.690;4.400;2024-02-26T02:59:35;3.85;;;1.50;;
21492;SDS011;10908;50.690;4.400;2024-02-26T03:02:02;3.33;;;1.42;;
21492;SDS011;10908;50.690;4.400;2024-02-26T03:04:28;6.97;;;1.80;;
21492;SDS011;10908;50.690;4.400;2024-02-26T03:06:54;4.50;;;2.00;;
21492;SDS011;10908;50.690;4.400;2024-02-26T03:09:20;5.72;;;1.70;;
21492;SDS011;10908;50.690;4.400;2024-02-26T03:11:45;4.72;;;1.83;;
21492;SDS011;10908;50.690;4.400;2024-02-26T03:14:11;3.60;;;1.80;;
21492;SDS011;10908;50.690;4.400;2024-02-26T03:16:37;4.72;;;2.10;;
21492;SDS011;10908;50.690;4.400;2024-02-26T03:19:02;4.82;;;2.28;;
21492;SDS011;10908;50.690;4.400;2024-02-26T03:21:28;6.25;;;2.30;;
21492;SDS011;10908;50.690;4.400;2024-02-26T03:23:54;4.43;;;2.08;;
21492;SDS011;10908;50.690;4.400;2024-02-26T03:26:19;4.47;;;2.30;;
21492;SDS011;10908;50.690;4.400;2024-02-26T03:28:46;4.90;;;2.35;;
21492;SDS011;10908;50.690;4.400;2024-02-26T03:31:12;5.03;;;2.33;;
21492;SDS011;10908;50.690;4.400;2024-02-26T03:33:38;5.13;;;2.70;;
21492;SDS011;10908;50.690;4.400;2024-02-26T03:36:03;7.25;;;2.45;;
21492;SDS011;10908;50.690;4.400;2024-02-26T03:38:30;5.88;;;2.67;;
21492;SDS011;10908;50.690;4.400;2024-02-26T03:40:55;5.97;;;2.60;;
21492;SDS011;10908;50.690;4.400;2024-02-26T03:43:21;6.85;;;2.88;;
21492;SDS011;10908;50.690;4.400;2024-02-26T03:45:47;4.40;;;2.67;;
21492;SDS011;10908;50.690;4.400;2024-02-26T03:48:12;8.30;;;3.13;;
21492;SDS011;10908;50.690;4.400;2024-02-26T03:50:38;5.63;;;2.80;;
21492;SDS011;10908;50.690;4.400;2024-02-26T03:53:04;4.40;;;2.45;;
21492;SDS011;10908;50.690;4.400;2024-02-26T03:55:30;5.82;;;2.50;;
21492;SDS011;10908;50.690;4.400;2024-02-26T03:57:55;4.90;;;2.67;;
21492;SDS011;10908;50.690;4.400;2024-02-26T04:00:21;6.38;;;2.58;;
21492;SDS011;10908;50.690;4.400;2024-02-26T04:02:47;6.93;;;2.60;;
21492;SDS011;10908;50.690;4.400;2024-02-26T04:05:13;4.80;;;2.58;;
21492;SDS011;10908;50.690;4.400;2024-02-26T04:07:39;4.90;;;2.67;;
21492;SDS011;10908;50.690;4.400;2024-02-26T04:10:11;4.75;;;2.60;;
21492;SDS011;10908;50.690;4.400;2024-02-26T04:12:38;6.80;;;3.30;;
21492;SDS011;10908;50.690;4.400;2024-02-26T04:15:05;5.40;;;2.60;;
21492;SDS011;10908;50.690;4.400;2024-02-26T04:17:32;5.35;;;2.85;;
21492;SDS011;10908;50.690;4.400;2024-02-26T04:19:58;5.90;;;2.70;;
21492;SDS011;10908;50.690;4.400;2024-02-26T04:22:23;6.75;;;2.53;;
21492;SDS011;10908;50.690;4.400;2024-02-26T04:24:49;5.57;;;2.88;;
21492;SDS011;10908;50.690;4.400;2024-02-26T04:27:14;5.55;;;2.80;;
21492;SDS011;10908;50.690;4.400;2024-02-26T04:29:40;6.80;;;3.65;;
21492;SDS011;10908;50.690;4.400;2024-02-26T04:32:06;5.63;;;3.00;;
21492;SDS011;10908;50.690;4.400;2024-02-26T04:34:31;6.07;;;3.53;;
21492;SDS011;10908;50.690;4.400;2024-02-26T04:36:57;6.60;;;3.40;;
21492;SDS011;10908;50.690;4.400;2024-02-26T04:39:23;6.75;;;3.55;;
21492;SDS011;10908;50.690;4.400;2024-02-26T04:41:49;6.65;;;3.80;;
21492;SDS011;10908;50.690;4.400;2024-02-26T04:44:15;7.43;;;3.83;;
21492;SDS011;10908;50.690;4.400;2024-02-26T04:46:40;7.53;;;4.05;;
21492;SDS011;10908;50.690;4.400;2024-02-26T04:49:06;8.15;;;4.35;;
21492;SDS011;10908;50.690;4.400;2024-02-26T04:51:32;8.93;;;4.78;;
21492;SDS011;10908;50.690;4.400;2024-02-26T04:53:57;6.72;;;4.25;;
21492;SDS011;10908;50.690;4.400;2024-02-26T04:56:23;7.55;;;4.35;;
21492;SDS011;10908;50.690;4.400;2024-02-26T04:58:50;8.77;;;4.70;;
21492;SDS011;10908;50.690;4.400;2024-02-26T05:01:15;9.38;;;4.70;;
21492;SDS011;10908;50.690;4.400;2024-02-26T05:03:42;7.82;;;4.60;;
21492;SDS011;10908;50.690;4.400;2024-02-26T05:06:08;8.90;;;4.28;;
21492;SDS011;10908;50.690;4.400;2024-02-26T05:08:34;6.63;;;4.00;;
21492;SDS011;10908;50.690;4.400;2024-02-26T05:11:01;8.05;;;4.30;;
21492;SDS011;10908;50.690;4.400;2024-02-26T05:13:28;8.18;;;4.82;;
21492;SDS011;10908;50.690;4.400;2024-02-26T05:15:54;8.07;;;4.13;;
21492;SDS011;10908;50.690;4.400;2024-02-26T05:18:19;7.65;;;4.82;;
21492;SDS011;10908;50.690;4.400;2024-02-26T05:20:45;7.32;;;4.32;;
21492;SDS011;10908;50.690;4.400;2024-02-26T05:23:11;7.35;;;4.20;;
21492;SDS011;10908;50.690;4.400;2024-02-26T05:25:37;8.18;;;4.78;;
21492;SDS011;10908;50.690;4.400;2024-02-26T05:28:02;8.70;;;5.13;;
21492;SDS011;10908;50.690;4.400;2024-02-26T05:30:28;9.55;;;5.07;;
21492;SDS011;10908;50.690;4.400;2024-02-26T05:32:54;10.05;;;4.82;;
21492;SDS011;10908;50.690;4.400;2024-02-26T05:35:19;8.75;;;5.40;;
21492;SDS011;10908;50.690;4.400;2024-02-26T05:37:45;8.52;;;5.15;;
21492;SDS011;10908;50.690;4.400;2024-02-26T05:40:11;8.40;;;5.00;;
21492;SDS011;10908;50.690;4.400;2024-02-26T05:42:37;9.05;;;5.45;;
21492;SDS011;10908;50.690;4.400;2024-02-26T05:45:03;8.18;;;5.18;;
21492;SDS011;10908;50.690;4.400;2024-02-26T05:47:32;8.93;;;5.57;;
21492;SDS011;10908;50.690;4.400;2024-02-26T05:49:58;9.63;;;6.10;;
21492;SDS011;10908;50.690;4.400;2024-02-26T05:52:25;9.60;;;6.20;;
21492;SDS011;10908;50.690;4.400;2024-02-26T05:54:51;9.95;;;6.68;;
21492;SDS011;10908;50.690;4.400;2024-02-26T05:57:17;11.65;;;6.53;;
21492;SDS011;10908;50.690;4.400;2024-02-26T05:59:43;11.20;;;6.45;;
21492;SDS011;10908;50.690;4.400;2024-02-26T06:02:09;11.50;;;6.57;;
21492;SDS011;10908;50.690;4.400;2024-02-26T06:04:35;11.95;;;7.53;;
21492;SDS011;10908;50.690;4.400;2024-02-26T06:07:00;12.60;;;7.88;;
21492;SDS011;10908;50.690;4.400;2024-02-26T06:09:26;12.98;;;7.65;;
21492;SDS011;10908;50.690;4.400;2024-02-26T06:11:51;14.30;;;8.20;;
21492;SDS011;10908;50.690;4.400;2024-02-26T06:14:17;13.70;;;7.65;;
21492;SDS011;10908;50.690;4.400;2024-02-26T06:16:44;13.38;;;8.05;;
21492;SDS011;10908;50.690;4.400;2024-02-26T06:19:09;13.18;;;8.05;;
21492;SDS011;10908;50.690;4.400;2024-02-26T06:21:35;15.20;;;8.55;;
21492;SDS011;10908;50.690;4.400;2024-02-26T06:24:01;13.90;;;8.18;;
21492;SDS011;10908;50.690;4.400;2024-02-26T06:26:27;13.35;;;7.75;;
21492;SDS011;10908;50.690;4.400;2024-02-26T06:28:58;13.13;;;8.02;;
21492;SDS011;10908;50.690;4.400;2024-02-26T06:31:23;14.40;;;8.45;;
21492;SDS011;10908;50.690;4.400;2024-02-26T06:33:51;13.00;;;7.60;;
21492;SDS011;10908;50.690;4.400;2024-02-26T06:36:17;12.25;;;7.57;;
21492;SDS011;10908;50.690;4.400;2024-02-26T06:38:42;11.93;;;7.30;;
21492;SDS011;10908;50.690;4.400;2024-02-26T06:41:08;11.43;;;7.35;;
21492;SDS011;10908;50.690;4.400;2024-02-26T06:43:34;13.55;;;8.10;;
21492;SDS011;10908;50.690;4.400;2024-02-26T06:46:00;13.18;;;7.78;;
21492;SDS011;10908;50.690;4.400;2024-02-26T06:48:25;12.18;;;7.75;;
21492;SDS011;10908;50.690;4.400;2024-02-26T06:50:51;13.13;;;8.20;;
21492;SDS011;10908;50.690;4.400;2024-02-26T06:53:17;12.65;;;7.50;;
21492;SDS011;10908;50.690;4.400;2024-02-26T06:55:42;12.43;;;7.95;;
21492;SDS011;10908;50.690;4.400;2024-02-26T06:58:08;11.73;;;8.50;;
21492;SDS011;10908;50.690;4.400;2024-02-26T07:00:34;11.73;;;8.20;;
21492;SDS011;10908;50.690;4.400;2024-02-26T07:03:00;12.60;;;8.15;;
21492;SDS011;10908;50.690;4.400;2024-02-26T07:05:26;15.77;;;8.32;;
21492;SDS011;10908;50.690;4.400;2024-02-26T07:07:52;12.10;;;8.10;;
21492;SDS011;10908;50.690;4.400;2024-02-26T07:10:18;12.95;;;8.68;;
21492;SDS011;10908;50.690;4.400;2024-02-26T07:12:44;13.35;;;8.35;;
21492;SDS011;10908;50.690;4.400;2024-02-26T07:15:09;11.95;;;8.43;;
21492;SDS011;10908;50.690;4.400;2024-02-26T07:17:35;14.02;;;8.73;;
21492;SDS011;10908;50.690;4.400;2024-02-26T07:20:01;15.35;;;9.18;;
21492;SDS011;10908;50.690;4.400;2024-02-26T07:22:30;14.88;;;9.50;;
21492;SDS011;10908;50.690;4.400;2024-02-26T07:24:55;14.13;;;10.20;;
21492;SDS011;10908;50.690;4.400;2024-02-26T07:27:21;16.17;;;9.70;;
21492;SDS011;10908;50.690;4.400;2024-02-26T07:29:47;16.00;;;10.30;;
21492;SDS011;10908;50.690;4.400;2024-02-26T07:32:13;15.52;;;11.18;;
21492;SDS011;10908;50.690;4.400;2024-02-26T07:34:39;17.88;;;11.45;;
21492;SDS011;10908;50.690;4.400;2024-02-26T07:37:07;16.95;;;12.05;;
21492;SDS011;10908;50.690;4.400;2024-02-26T07:39:33;17.30;;;12.73;;
21492;SDS011;10908;50.690;4.400;2024-02-26T07:41:58;17.63;;;11.90;;
21492;SDS011;10908;50.690;4.400;2024-02-26T07:44:24;17.73;;;12.05;;
21492;SDS011;10908;50.690;4.400;2024-02-26T07:46:50;20.35;;;11.98;;
21492;SDS011;10908;50.690;4.400;2024-02-26T07:49:15;19.38;;;13.00;;
21492;SDS011;10908;50.690;4.400;2024-02-26T07:51:41;20.58;;;12.48;;
21492;SDS011;10908;50.690;4.400;2024-02-26T07:54:07;19.85;;;12.50;;
21492;SDS011;10908;50.690;4.400;2024-02-26T07:56:32;17.50;;;12.02;;
21492;SDS011;10908;50.690;4.400;2024-02-26T07:58:58;17.73;;;12.82;;
21492;SDS011;10908;50.690;4.400;2024-02-26T08:01:24;17.90;;;12.25;;
21492;SDS011;10908;50.690;4.400;2024-02-26T08:03:51;16.58;;;11.40;;
21492;SDS011;10908;50.690;4.400;2024-02-26T08:06:18;19.65;;;12.73;;
21492;SDS011;10908;50.690;4.400;2024-02-26T08:08:43;18.90;;;12.15;;
21492;SDS011;10908;50.690;4.400;2024-02-26T08:11:09;20.30;;;13.00;;
21492;SDS011;10908;50.690;4.400;2024-02-26T08:13:34;18.30;;;12.02;;
21492;SDS011;10908;50.690;4.400;2024-02-26T08:16:01;17.08;;;11.95;;
21492;SDS011;10908;50.690;4.400;2024-02-26T08:18:26;18.63;;;12.38;;
21492;SDS011;10908;50.690;4.400;2024-02-26T08:20:52;20.00;;;12.23;;
21492;SDS011;10908;50.690;4.400;2024-02-26T08:23:18;19.55;;;12.07;;
21492;SDS011;10908;50.690;4.400;2024-02-26T08:25:43;17.13;;;11.35;;
21492;SDS011;10908;50.690;4.400;2024-02-26T08:28:09;16.70;;;10.90;;
21492;SDS011;10908;50.690;4.400;2024-02-26T08:30:38;17.25;;;11.30;;
21492;SDS011;10908;50.690;4.400;2024-02-26T08:33:04;18.27;;;11.18;;
21492;SDS011;10908;50.690;4.400;2024-02-26T08:35:29;16.60;;;10.32;;
21492;SDS011;10908;50.690;4.400;2024-02-26T08:37:55;17.35;;;10.90;;
21492;SDS011;10908;50.690;4.400;2024-02-26T08:40:20;14.70;;;10.43;;
21492;SDS011;10908;50.690;4.400;2024-02-26T08:42:46;16.90;;;11.27;;
21492;SDS011;10908;50.690;4.400;2024-02-26T08:45:12;16.23;;;10.70;;
21492;SDS011;10908;50.690;4.400;2024-02-26T08:47:38;16.85;;;10.90;;
21492;SDS011;10908;50.690;4.400;2024-02-26T08:50:04;13.60;;;10.02;;
21492;SDS011;10908;50.690;4.400;2024-02-26T08:52:30;16.10;;;10.63;;
21492;SDS011;10908;50.690;4.400;2024-02-26T08:54:56;15.60;;;10.65;;
21492;SDS011;10908;50.690;4.400;2024-02-26T08:57:22;16.45;;;10.63;;
21492;SDS011;10908;50.690;4.400;2024-02-26T08:59:48;14.15;;;10.25;;
21492;SDS011;10908;50.690;4.400;2024-02-26T09:02:13;14.13;;;10.57;;
21492;SDS011;10908;50.690;4.400;2024-02-26T09:04:39;13.50;;;9.27;;
21492;SDS011;10908;50.690;4.400;2024-02-26T09:07:05;15.20;;;10.07;;
21492;SDS011;10908;50.690;4.400;2024-02-26T09:09:31;14.77;;;9.60;;
21492;SDS011;10908;50.690;4.400;2024-02-26T09:11:57;14.55;;;9.27;;
21492;SDS011;10908;50.690;4.400;2024-02-26T09:14:23;14.70;;;9.88;;
21492;SDS011;10908;50.690;4.400;2024-02-26T09:16:49;13.18;;;9.38;;
21492;SDS011;10908;50.690;4.400;2024-02-26T09:19:14;15.73;;;9.43;;
21492;SDS011;10908;50.690;4.400;2024-02-26T09:21:46;16.65;;;10.07;;
21492;SDS011;10908;50.690;4.400;2024-02-26T09:24:12;15.98;;;9.10;;
21492;SDS011;10908;50.690;4.400;2024-02-26T09:26:38;14.05;;;10.23;;
21492;SDS011;10908;50.690;4.400;2024-02-26T09:29:04;13.65;;;9.48;;
21492;SDS011;10908;50.690;4.400;2024-02-26T09:31:30;14.68;;;10.15;;
21492;SDS011;10908;50.690;4.400;2024-02-26T09:33:56;14.45;;;9.75;;
21492;SDS011;10908;50.690;4.400;2024-02-26T09:36:22;14.15;;;10.02;;
21492;SDS011;10908;50.690;4.400;2024-02-26T09:38:47;14.02;;;10.25;;
21492;SDS011;10908;50.690;4.400;2024-02-26T09:41:16;14.55;;;10.30;;
21492;SDS011;10908;50.690;4.400;2024-02-26T09:43:43;14.45;;;10.38;;
21492;SDS011;10908;50.690;4.400;2024-02-26T09:46:11;14.15;;;10.50;;
21492;SDS011;10908;50.690;4.400;2024-02-26T09:48:37;12.05;;;9.27;;
21492;SDS011;10908;50.690;4.400;2024-02-26T09:51:03;13.38;;;9.50;;
21492;SDS011;10908;50.690;4.400;2024-02-26T09:53:30;12.00;;;9.10;;
21492;SDS011;10908;50.690;4.400;2024-02-26T09:55:59;13.57;;;9.80;;
21492;SDS011;10908;50.690;4.400;2024-02-26T09:58:27;12.93;;;9.77;;
21492;SDS011;10908;50.690;4.400;2024-02-26T10:00:55;12.45;;;8.95;;
21492;SDS011;10908;50.690;4.400;2024-02-26T10:03:25;13.63;;;9.45;;
21492;SDS011;10908;50.690;4.400;2024-02-26T10:05:55;11.98;;;9.05;;
21492;SDS011;10908;50.690;4.400;2024-02-26T10:08:22;12.43;;;9.40;;
21492;SDS011;10908;50.690;4.400;2024-02-26T10:10:48;13.60;;;8.77;;
21492;SDS011;10908;50.690;4.400;2024-02-26T10:13:15;11.73;;;9.00;;
21492;SDS011;10908;50.690;4.400;2024-02-26T10:15:41;12.32;;;8.68;;
21492;SDS011;10908;50.690;4.400;2024-02-26T10:18:06;11.95;;;8.65;;
21492;SDS011;10908;50.690;4.400;2024-02-26T10:20:32;11.55;;;8.10;;
21492;SDS011;10908;50.690;4.400;2024-02-26T10:22:58;12.10;;;7.82;;
21492;SDS011;10908;50.690;4.400;2024-02-26T10:25:27;12.48;;;8.63;;
21492;SDS011;10908;50.690;4.400;2024-02-26T10:27:53;13.05;;;8.43;;
21492;SDS011;10908;50.690;4.400;2024-02-26T10:30:20;11.98;;;8.60;;
21492;SDS011;10908;50.690;4.400;2024-02-26T10:32:46;11.10;;;7.10;;
21492;SDS011;10908;50.690;4.400;2024-02-26T10:35:15;11.35;;;7.75;;
21492;SDS011;10908;50.690;4.400;2024-02-26T10:37:42;10.40;;;7.78;;
21492;SDS011;10908;50.690;4.400;2024-02-26T10:40:11;12.27;;;7.55;;
21492;SDS011;10908;50.690;4.400;2024-02-26T10:42:38;9.55;;;7.22;;
21492;SDS011;10908;50.690;4.400;2024-02-26T10:45:07;10.27;;;7.22;;
21492;SDS011;10908;50.690;4.400;2024-02-26T10:47:34;9.68;;;6.78;;
21492;SDS011;10908;50.690;4.400;2024-02-26T10:50:05;11.20;;;7.07;;
21492;SDS011;10908;50.690;4.400;2024-02-26T10:52:32;11.80;;;6.78;;
21492;SDS011;10908;50.690;4.400;2024-02-26T10:55:02;10.02;;;6.63;;
21492;SDS011;10908;50.690;4.400;2024-02-26T10:57:31;10.55;;;6.90;;
21492;SDS011;10908;50.690;4.400;2024-02-26T11:00:04;10.95;;;7.50;;
21492;SDS011;10908;50.690;4.400;2024-02-26T11:02:31;10.18;;;7.18;;
21492;SDS011;10908;50.690;4.400;2024-02-26T11:05:00;11.43;;;7.40;;
21492;SDS011;10908;50.690;4.400;2024-02-26T11:07:28;11.20;;;7.65;;
21492;SDS011;10908;50.690;4.400;2024-02-26T11:09:56;10.15;;;6.60;;
21492;SDS011;10908;50.690;4.400;2024-02-26T11:12:22;10.60;;;7.07;;
21492;SDS011;10908;50.690;4.400;2024-02-26T11:14:49;10.18;;;6.97;;
21492;SDS011;10908;50.690;4.400;2024-02-26T11:17:20;8.73;;;6.35;;
21492;SDS011;10908;50.690;4.400;2024-02-26T11:19:53;9.15;;;6.30;;
21492;SDS011;10908;50.690;4.400;2024-02-26T11:22:21;10.25;;;6.93;;
21492;SDS011;10908;50.690;4.400;2024-02-26T11:24:47;9.40;;;6.97;;
21492;SDS011;10908;50.690;4.400;2024-02-26T11:27:14;10.25;;;6.00;;
21492;SDS011;10908;50.690;4.400;2024-02-26T11:29:44;10.70;;;6.50;;
21492;SDS011;10908;50.690;4.400;2024-02-26T11:32:14;9.20;;;6.45;;
21492;SDS011;10908;50.690;4.400;2024-02-26T11:34:40;9.20;;;6.15;;
21492;SDS011;10908;50.690;4.400;2024-02-26T11:37:13;9.73;;;6.53;;
21492;SDS011;10908;50.690;4.400;2024-02-26T11:39:40;8.60;;;6.07;;
21492;SDS011;10908;50.690;4.400;2024-02-26T11:42:06;8.18;;;6.13;;
21492;SDS011;10908;50.690;4.400;2024-02-26T11:44:33;9.10;;;6.10;;
21492;SDS011;10908;50.690;4.400;2024-02-26T11:47:09;10.00;;;6.40;;
21492;SDS011;10908;50.690;4.400;2024-02-26T11:49:38;8.15;;;5.68;;
21492;SDS011;10908;50.690;4.400;2024-02-26T11:52:05;8.60;;;5.97;;
21492;SDS011;10908;50.690;4.400;2024-02-26T11:59:53;8.88;;;5.13;;
21492;SDS011;10908;50.690;4.400;2024-02-26T12:05:11;7.38;;;5.00;;
21492;SDS011;10908;50.690;4.400;2024-02-26T12:07:40;7.68;;;5.30;;
21492;SDS011;10908;50.690;4.400;2024-02-26T12:10:14;6.93;;;4.53;;
21492;SDS011;10908;50.690;4.400;2024-02-26T12:12:40;6.97;;;4.30;;
21492;SDS011;10908;50.690;4.400;2024-02-26T12:15:07;6.97;;;4.57;;
21492;SDS011;10908;50.690;4.400;2024-02-26T12:17:34;6.13;;;4.28;;
21492;SDS011;10908;50.690;4.400;2024-02-26T12:20:10;6.20;;;4.28;;
21492;SDS011;10908;50.690;4.400;2024-02-26T12:22:37;6.60;;;4.07;;
21492;SDS011;10908;50.690;4.400;2024-02-26T12:25:05;6.97;;;4.00;;
21492;SDS011;10908;50.690;4.400;2024-02-26T12:27:34;5.65;;;3.72;;
21492;SDS011;10908;50.690;4.400;2024-02-26T12:30:00;6.80;;;3.97;;
21492;SDS011;10908;50.690;4.400;2024-02-26T12:32:28;5.88;;;3.75;;
21492;SDS011;10908;50.690;4.400;2024-02-26T12:34:53;5.70;;;3.78;;
21492;SDS011;10908;50.690;4.400;2024-02-26T12:37:19;5.07;;;3.47;;
21492;SDS011;10908;50.690;4.400;2024-02-26T12:39:45;5.75;;;3.28;;
21492;SDS011;10908;50.690;4.400;2024-02-26T12:42:11;5.57;;;3.50;;
21492;SDS011;10908;50.690;4.400;2024-02-26T12:44:37;5.30;;;3.28;;
21492;SDS011;10908;50.690;4.400;2024-02-26T12:47:03;5.47;;;3.47;;
21492;SDS011;10908;50.690;4.400;2024-02-26T12:49:29;5.80;;;3.92;;
21492;SDS011;10908;50.690;4.400;2024-02-26T12:51:55;5.18;;;3.67;;
21492;SDS011;10908;50.690;4.400;2024-02-26T12:54:33;5.63;;;3.55;;
21492;SDS011;10908;50.690;4.400;2024-02-26T12:57:06;6.53;;;3.90;;
21492;SDS011;10908;50.690;4.400;2024-02-26T12:59:34;6.28;;;3.90;;
21492;SDS011;10908;50.690;4.400;2024-02-26T13:02:01;6.22;;;3.75;;
21492;SDS011;10908;50.690;4.400;2024-02-26T13:04:28;5.85;;;3.83;;
21492;SDS011;10908;50.690;4.400;2024-02-26T13:06:54;6.75;;;4.00;;
21492;SDS011;10908;50.690;4.400;2024-02-26T13:09:20;7.18;;;4.00;;
21492;SDS011;10908;50.690;4.400;2024-02-26T13:11:52;5.93;;;3.90;;
21492;SDS011;10908;50.690;4.400;2024-02-26T13:14:19;6.50;;;4.32;;
21492;SDS011;10908;50.690;4.400;2024-02-26T13:16:53;6.63;;;3.97;;
21492;SDS011;10908;50.690;4.400;2024-02-26T13:19:20;7.88;;;4.20;;
21492;SDS011;10908;50.690;4.400;2024-02-26T13:21:46;6.43;;;4.57;;
21492;SDS011;10908;50.690;4.400;2024-02-26T13:24:14;6.45;;;4.05;;
21492;SDS011;10908;50.690;4.400;2024-02-26T13:26:41;7.07;;;4.50;;
21492;SDS011;10908;50.690;4.400;2024-02-26T13:29:07;6.43;;;4.63;;
21492;SDS011;10908;50.690;4.400;2024-02-26T13:31:38;7.40;;;4.75;;
21492;SDS011;10908;50.690;4.400;2024-02-26T13:34:05;6.65;;;4.55;;
21492;SDS011;10908;50.690;4.400;2024-02-26T13:36:30;7.38;;;4.97;;
21492;SDS011;10908;50.690;4.400;2024-02-26T13:38:56;8.35;;;5.07;;
21492;SDS011;10908;50.690;4.400;2024-02-26T13:41:22;7.45;;;5.28;;
21492;SDS011;10908;50.690;4.400;2024-02-26T13:43:48;6.90;;;5.03;;
21492;SDS011;10908;50.690;4.400;2024-02-26T13:46:14;7.38;;;5.25;;
21492;SDS011;10908;50.690;4.400;2024-02-26T13:48:40;6.78;;;5.10;;
21492;SDS011;10908;50.690;4.400;2024-02-26T13:51:06;8.40;;;5.47;;
21492;SDS011;10908;50.690;4.400;2024-02-26T13:53:32;8.55;;;5.72;;
21492;SDS011;10908;50.690;4.400;2024-02-26T13:55:58;7.78;;;5.90;;
21492;SDS011;10908;50.690;4.400;2024-02-26T13:58:26;8.18;;;5.60;;
21492;SDS011;10908;50.690;4.400;2024-02-26T14:00:52;8.40;;;5.70;;
21492;SDS011;10908;50.690;4.400;2024-02-26T14:03:19;9.57;;;6.07;;
21492;SDS011;10908;50.690;4.400;2024-02-26T14:05:45;8.55;;;5.97;;
21492;SDS011;10908;50.690;4.400;2024-02-26T14:08:11;8.73;;;6.55;;
21492;SDS011;10908;50.690;4.400;2024-02-26T14:10:38;10.25;;;6.80;;
21492;SDS011;10908;50.690;4.400;2024-02-26T14:13:04;9.98;;;7.43;;
21492;SDS011;10908;50.690;4.400;2024-02-26T14:15:30;9.77;;;7.22;;
21492;SDS011;10908;50.690;4.400;2024-02-26T14:17:56;10.55;;;8.25;;
21492;SDS011;10908;50.690;4.400;2024-02-26T14:20:21;11.38;;;8.38;;
21492;SDS011;10908;50.690;4.400;2024-02-26T14:22:49;11.15;;;8.25;;
21492;SDS011;10908;50.690;4.400;2024-02-26T14:25:16;12.48;;;8.98;;
21492;SDS011;10908;50.690;4.400;2024-02-26T14:27:42;12.48;;;9.40;;
21492;SDS011;10908;50.690;4.400;2024-02-26T14:30:07;14.27;;;10.15;;
21492;SDS011;10908;50.690;4.400;2024-02-26T14:32:33;13.77;;;10.48;;
21492;SDS011;10908;50.690;4.400;2024-02-26T14:35:01;15.35;;;11.07;;
21492;SDS011;10908;50.690;4.400;2024-02-26T14:37:28;15.63;;;10.98;;
21492;SDS011;10908;50.690;4.400;2024-02-26T14:39:53;16.35;;;11.43;;
21492;SDS011;10908;50.690;4.400;2024-02-26T14:42:19;16.10;;;11.20;;
21492;SDS011;10908;50.690;4.400;2024-02-26T14:44:45;16.83;;;11.85;;